Portada
METAR-TAF:

METAR-TAF

Aeropuertos :

Weno, Weno Island, Micronesia

Aeropuerto Internacional de Chuuk

latitud: 07-28N, longitud: 151-51E, altitud: 3 m

Observación

El informe se hizo hace 1 hora y 12 minutos, a las 04:50 UTC
Viento 6 kt del sur
Temperatura 32°C
Humedad 71%
Presión 1006 hPa
Visibilidad: 24.1 km
Nubes dispersas a una altura de 1400 ft, Cumulus congestus.
Cielo nuboso a una altura de 12000 ft
Cielo cubierto a una altura de 28000 ft

METAR: PTKK 170450Z 17006KT 15SM SCT014TCU BKN120 OVC280 32/26 A2971 RMK TCU S-SW SLP064 T03150257

Hora: 16:02 (06:02 UTC)

Pronóstico

El informe se hizo hace 42 minutos, a las 05:20 UTC
Pronóstico válido del 17 a las 06 UTC al 18 a las 06 UTC
Viento 6 kt del sur
Visibilidad: 10 km
Nubes dispersas a una altura de 1400 ft
Cielo nuboso a una altura de 12000 ft
chaparrones en las proximidades

TAF: PTKK 170520Z 1706/1806 17006KT P6SM VCSH SCT014 BKN120

Observaciones y pronósticos meteorológicos de más de 4000 aeropuertos (mensajes METAR y TAF).

Los puntos amarillos y rojos representan las estaciones disponibles.

Ponga el ratón en el punto deseado para ver el nombre de la estación.

Haga clic para ver las observaciones y los pronósticos meteorológicos.

Para cambiar el mapa : haga clic en los botones verdes con una cruz de color negro para hacer un zoom, en el botón verde con un guión para alejar o en las flechas verdes para mapas adyacentes.


METAR-TAF: